createdAt,value
2022-11-23T00:02:28.351Z,99.90
2022-11-23T00:05:31.478Z,99.90
2022-11-23T00:08:32.433Z,99.90
2022-11-23T00:11:35.591Z,99.90
2022-11-23T00:14:36.494Z,99.90
2022-11-23T00:17:37.118Z,99.90
2022-11-23T00:20:40.078Z,99.90
2022-11-23T00:23:40.895Z,99.90
2022-11-23T00:26:41.748Z,99.90
2022-11-23T00:29:42.616Z,99.90
2022-11-23T00:32:44.351Z,99.90
2022-11-23T00:35:45.462Z,99.90
2022-11-23T00:38:47.900Z,99.90
2022-11-23T00:41:49.193Z,99.90
2022-11-23T00:44:49.783Z,99.90
2022-11-23T00:47:50.705Z,99.90
2022-11-23T00:50:51.871Z,99.90
2022-11-23T00:53:53.826Z,99.90
2022-11-23T00:56:54.555Z,99.90
2022-11-23T00:59:56.311Z,99.90
2022-11-23T01:02:58.997Z,99.90
2022-11-23T01:06:09.372Z,99.90
2022-11-23T01:09:18.245Z,99.90
2022-11-23T01:12:19.255Z,99.90
2022-11-23T01:15:21.645Z,99.90
2022-11-23T01:18:23.982Z,99.90
2022-11-23T01:21:27.646Z,99.90
2022-11-23T01:24:28.788Z,99.90
2022-11-23T01:27:29.452Z,99.90
2022-11-23T01:30:34.503Z,99.90
2022-11-23T01:33:36.690Z,99.90
2022-11-23T01:36:37.769Z,99.90
2022-11-23T01:39:38.595Z,99.90
2022-11-23T01:43:00.395Z,99.90
2022-11-23T01:46:02.779Z,99.90
2022-11-23T01:49:07.783Z,99.90
2022-11-23T01:52:24.824Z,99.90
2022-11-23T01:55:27.609Z,99.90
2022-11-23T01:58:33.332Z,99.90
2022-11-23T02:01:34.324Z,99.90
2022-11-23T02:04:43.561Z,99.90
2022-11-23T02:07:50.296Z,99.90
2022-11-23T02:10:51.580Z,99.90
2022-11-23T02:13:52.820Z,99.90
2022-11-23T02:16:54.313Z,99.90
2022-11-23T02:20:15.275Z,99.90
2022-11-23T02:23:52.400Z,99.90
2022-11-23T02:26:54.233Z,99.90
2022-11-23T02:30:00.347Z,99.90
2022-11-23T02:33:06.301Z,99.90
2022-11-23T02:36:42.981Z,99.90
2022-11-23T02:39:52.170Z,99.90
2022-11-23T02:42:53.479Z,99.90
2022-11-23T02:45:59.718Z,99.90
2022-11-23T02:49:00.760Z,99.90
2022-11-23T02:52:03.203Z,99.90
2022-11-23T02:55:04.299Z,99.90
2022-11-23T02:58:07.407Z,99.90
2022-11-23T03:01:08.472Z,99.90
2022-11-23T03:04:10.712Z,99.90
2022-11-23T03:07:11.624Z,99.90
2022-11-23T03:10:14.029Z,99.90
2022-11-23T03:13:15.085Z,99.90
2022-11-23T03:16:16.855Z,99.90
2022-11-23T03:19:21.309Z,99.90
2022-11-23T03:22:24.949Z,99.90
2022-11-23T03:25:27.468Z,99.90
2022-11-23T03:28:30.928Z,99.90
2022-11-23T03:31:32.202Z,99.90
2022-11-23T03:34:34.073Z,99.90
2022-11-23T03:37:35.943Z,99.90
2022-11-23T03:40:37.247Z,99.90
2022-11-23T03:43:58.088Z,99.90
2022-11-23T03:46:59.565Z,99.90
2022-11-23T03:50:02.069Z,99.90
2022-11-23T03:53:06.370Z,99.90
2022-11-23T03:56:09.187Z,99.90
2022-11-23T03:59:15.416Z,99.90
2022-11-23T04:02:16.760Z,99.90
2022-11-23T04:05:30.273Z,99.90
2022-11-23T04:08:50.045Z,99.90
2022-11-23T04:12:00.452Z,99.90
2022-11-23T04:15:01.664Z,99.90
2022-11-23T04:18:02.787Z,99.90
2022-11-23T04:21:04.108Z,99.90
2022-11-23T04:24:05.653Z,99.90
2022-11-23T04:27:08.406Z,99.90
2022-11-23T04:30:10.418Z,99.90
2022-11-23T04:33:12.030Z,99.90
2022-11-23T04:36:13.759Z,99.90
2022-11-23T04:39:15.182Z,99.90
2022-11-23T04:42:36.261Z,99.90
2022-11-23T04:45:41.071Z,99.90
2022-11-23T04:48:48.772Z,99.90
2022-11-23T04:51:51.596Z,99.90
2022-11-23T04:54:55.014Z,99.90
2022-11-23T04:57:57.035Z,99.90
2022-11-23T05:01:01.222Z,99.90
2022-11-23T05:04:02.621Z,99.90
2022-11-23T05:07:03.971Z,99.90
2022-11-23T05:10:08.405Z,99.90
2022-11-23T05:13:09.997Z,99.90
2022-11-23T05:16:11.270Z,99.90
2022-11-23T05:19:14.015Z,99.90
2022-11-23T05:22:15.278Z,99.90
2022-11-23T05:25:17.636Z,99.90
2022-11-23T05:28:39.759Z,99.90
2022-11-23T05:31:41.808Z,99.90
2022-11-23T05:34:44.350Z,99.90
2022-11-23T05:37:47.877Z,99.90
2022-11-23T05:40:50.172Z,99.90
2022-11-23T05:43:51.537Z,99.90
2022-11-23T05:46:57.217Z,99.90
2022-11-23T05:49:58.391Z,99.90
2022-11-23T05:53:03.569Z,99.90
2022-11-23T05:56:05.922Z,99.90
2022-11-23T05:59:13.552Z,99.90
2022-11-23T06:02:17.574Z,99.90
2022-11-23T06:05:19.118Z,99.90
2022-11-23T06:08:23.932Z,99.90
2022-11-23T06:11:25.254Z,99.90
2022-11-23T06:14:29.247Z,99.90
2022-11-23T06:17:31.049Z,99.90
2022-11-23T06:20:37.533Z,99.90
2022-11-23T06:23:38.680Z,99.90
2022-11-23T06:26:40.479Z,99.90
2022-11-23T06:29:42.255Z,99.90
2022-11-23T06:32:42.986Z,99.90
2022-11-23T06:36:02.967Z,99.90
2022-11-23T06:39:10.654Z,99.90
2022-11-23T06:45:35.266Z,99.90
2022-11-23T06:48:43.747Z,99.90
2022-11-23T06:51:46.676Z,99.90
2022-11-23T06:54:49.291Z,99.90
2022-11-23T06:57:50.659Z,99.90
2022-11-23T07:00:51.969Z,99.90
2022-11-23T07:03:53.200Z,99.90
2022-11-23T07:07:04.828Z,99.90
2022-11-23T07:10:18.361Z,99.90
2022-11-23T07:13:22.622Z,99.90
2022-11-23T07:16:24.182Z,99.90
2022-11-23T07:19:25.785Z,99.90
2022-11-23T07:22:30.764Z,99.90
2022-11-23T07:25:34.266Z,99.90
2022-11-23T07:28:36.184Z,99.90
2022-11-23T07:31:38.029Z,99.90
2022-11-23T07:34:38.975Z,99.90
2022-11-23T07:37:41.898Z,99.90
2022-11-23T07:40:43.873Z,99.90
2022-11-23T07:43:56.849Z,99.90
2022-11-23T07:46:58.078Z,99.90
2022-11-23T07:49:59.258Z,99.90
2022-11-23T07:53:03.931Z,99.90
2022-11-23T07:56:05.427Z,99.90
2022-11-23T07:59:06.279Z,99.90
2022-11-23T08:02:15.993Z,99.90
2022-11-23T08:05:18.407Z,99.90
2022-11-23T08:08:23.409Z,99.90
2022-11-23T08:11:24.411Z,99.90
2022-11-23T08:14:25.775Z,99.90
2022-11-23T08:17:27.196Z,99.90
2022-11-23T08:20:30.300Z,99.90
2022-11-23T08:23:31.371Z,99.90
2022-11-23T08:26:32.786Z,96.50
2022-11-23T08:29:33.608Z,93.60
2022-11-23T08:32:35.500Z,92.80
2022-11-23T08:35:42.314Z,94.00
2022-11-23T08:38:43.242Z,91.40
2022-11-23T08:41:44.440Z,93.00
2022-11-23T08:44:45.136Z,91.60
2022-11-23T08:47:46.097Z,88.80
2022-11-23T08:50:47.118Z,84.90
2022-11-23T08:53:47.831Z,83.30
2022-11-23T08:56:49.173Z,85.40
2022-11-23T08:59:50.354Z,86.40
2022-11-23T09:02:51.258Z,83.30
2022-11-23T09:05:52.004Z,85.50
2022-11-23T09:08:53.430Z,81.80
2022-11-23T09:11:54.608Z,80.20
2022-11-23T09:14:55.459Z,81.60
2022-11-23T09:17:57.491Z,79.20
2022-11-23T09:20:59.118Z,81.00
2022-11-23T09:24:00.294Z,80.50
2022-11-23T09:27:01.390Z,79.70
2022-11-23T09:30:02.794Z,79.60
2022-11-23T09:33:03.808Z,81.40
2022-11-23T09:36:05.244Z,83.50
2022-11-23T09:39:05.950Z,82.50
2022-11-23T09:42:34.632Z,83.80
2022-11-23T09:45:54.320Z,79.20
2022-11-23T09:49:20.134Z,79.90
2022-11-23T09:52:25.425Z,80.00
2022-11-23T09:55:47.823Z,77.10
2022-11-23T09:58:56.897Z,75.50
2022-11-23T10:02:00.672Z,80.80
2022-11-23T10:05:05.534Z,92.30
2022-11-23T10:08:27.430Z,79.50
2022-11-23T10:11:37.939Z,78.10
2022-11-23T10:14:41.991Z,75.90
2022-11-23T10:17:51.183Z,74.80
2022-11-23T10:21:42.984Z,73.00
2022-11-23T10:24:51.174Z,74.60
2022-11-23T10:28:01.094Z,87.20
2022-11-23T10:31:26.021Z,85.50
2022-11-23T10:35:15.559Z,83.10
2022-11-23T10:38:22.151Z,83.40
2022-11-23T10:41:23.222Z,87.70
2022-11-23T10:44:38.221Z,94.20
2022-11-23T10:47:48.930Z,89.50
2022-11-23T10:50:50.203Z,89.30
2022-11-23T10:54:21.471Z,88.00
2022-11-23T10:57:28.516Z,86.60
2022-11-23T11:00:31.286Z,84.80
2022-11-23T11:03:35.332Z,85.50
2022-11-23T11:06:36.433Z,82.70
2022-11-23T11:09:38.110Z,85.50
2022-11-23T11:12:52.045Z,86.00
2022-11-23T11:16:02.619Z,86.40
2022-11-23T11:19:31.030Z,84.30
2022-11-23T11:22:40.177Z,83.80
2022-11-23T11:25:45.114Z,84.50
2022-11-23T11:28:54.534Z,86.00
2022-11-23T11:32:09.345Z,85.20
2022-11-23T11:35:25.090Z,86.90
2022-11-23T11:38:35.066Z,82.20
2022-11-23T11:41:37.586Z,83.60
2022-11-23T11:44:43.077Z,83.60
2022-11-23T11:47:59.791Z,82.70
2022-11-23T11:51:31.853Z,81.40
2022-11-23T11:54:59.052Z,82.10
2022-11-23T11:58:11.030Z,82.20
2022-11-23T12:01:38.369Z,89.30
2022-11-23T12:04:58.049Z,89.50
2022-11-23T12:08:41.061Z,93.50
2022-11-23T12:11:42.537Z,96.60
2022-11-23T12:14:45.358Z,96.30
2022-11-23T12:18:38.639Z,97.30
2022-11-23T12:22:03.206Z,95.60
2022-11-23T12:25:11.509Z,98.10
2022-11-23T12:29:03.476Z,99.90
2022-11-23T12:32:28.625Z,99.90
2022-11-23T12:35:54.993Z,99.90
2022-11-23T12:39:55.746Z,99.90
2022-11-23T12:43:08.892Z,99.90
2022-11-23T12:46:45.200Z,99.90
2022-11-23T12:49:54.256Z,99.90
2022-11-23T12:53:27.196Z,99.90
2022-11-23T12:56:54.840Z,99.90
2022-11-23T13:00:17.076Z,99.90
2022-11-23T13:03:45.759Z,99.90
2022-11-23T13:07:28.427Z,99.90
2022-11-23T13:11:25.430Z,98.60
2022-11-23T13:14:57.859Z,94.40
2022-11-23T13:18:38.807Z,97.90
2022-11-23T13:21:43.701Z,99.90
2022-11-23T13:25:29.860Z,97.50
2022-11-23T13:28:31.825Z,97.70
2022-11-23T13:31:36.068Z,99.40
2022-11-23T13:34:46.899Z,99.90
2022-11-23T13:37:57.127Z,95.00
2022-11-23T13:40:58.554Z,99.90
2022-11-23T13:44:11.421Z,99.90
2022-11-23T13:47:16.233Z,99.90
2022-11-23T13:50:19.520Z,99.90
2022-11-23T13:53:32.553Z,99.90
2022-11-23T13:56:39.139Z,99.90
2022-11-23T13:59:40.075Z,99.90
2022-11-23T14:02:42.450Z,99.90
2022-11-23T14:05:49.702Z,99.90
2022-11-23T14:09:17.201Z,99.90
2022-11-23T14:12:27.823Z,99.90
2022-11-23T14:15:35.779Z,99.90
2022-11-23T14:18:39.612Z,99.90
2022-11-23T14:22:27.611Z,99.90
2022-11-23T14:26:29.823Z,99.90
2022-11-23T14:29:56.018Z,99.90
2022-11-23T14:33:22.223Z,99.90
2022-11-23T14:36:47.997Z,99.90
2022-11-23T14:39:57.487Z,99.90
2022-11-23T14:43:00.723Z,99.90
2022-11-23T14:46:07.320Z,99.90
2022-11-23T14:49:15.290Z,99.90
2022-11-23T14:52:24.786Z,99.90
2022-11-23T14:55:30.610Z,99.90
2022-11-23T14:58:33.749Z,99.90
2022-11-23T15:01:37.303Z,99.90
2022-11-23T15:04:59.670Z,99.90
2022-11-23T15:08:39.482Z,99.90
2022-11-23T15:11:40.627Z,99.90
2022-11-23T15:14:44.240Z,99.90
2022-11-23T15:18:02.591Z,99.90
2022-11-23T15:21:10.696Z,99.90
2022-11-23T15:24:23.947Z,99.90
2022-11-23T15:27:28.622Z,99.90
2022-11-23T15:30:31.273Z,99.90
2022-11-23T15:33:32.367Z,99.90
2022-11-23T15:36:40.096Z,99.90
2022-11-23T15:39:42.846Z,99.90
2022-11-23T15:42:48.632Z,99.90
2022-11-23T15:45:49.308Z,99.90
2022-11-23T15:48:52.345Z,99.90
2022-11-23T15:52:01.316Z,99.90
2022-11-23T15:55:14.206Z,99.90
2022-11-23T15:58:19.729Z,99.90
2022-11-23T16:01:22.367Z,99.90
2022-11-23T16:04:40.566Z,99.90
2022-11-23T16:08:02.403Z,99.90
2022-11-23T16:11:03.824Z,99.90
2022-11-23T16:14:21.276Z,99.90
2022-11-23T16:17:26.268Z,99.90
2022-11-23T16:20:29.622Z,99.90
2022-11-23T16:23:37.271Z,99.90
2022-11-23T16:26:38.099Z,99.90
2022-11-23T16:29:39.036Z,99.90
2022-11-23T16:32:39.691Z,99.90
2022-11-23T16:35:40.573Z,99.90
2022-11-23T16:38:41.321Z,99.90
2022-11-23T16:41:42.579Z,99.90
2022-11-23T16:44:45.790Z,99.90
2022-11-23T16:47:56.969Z,99.90
2022-11-23T16:50:58.099Z,99.90
2022-11-23T16:54:17.019Z,99.90
2022-11-23T16:57:34.736Z,99.90
2022-11-23T17:00:36.192Z,99.90
2022-11-23T17:03:41.421Z,99.90
2022-11-23T17:06:45.623Z,99.90
2022-11-23T17:09:46.989Z,99.90
2022-11-23T17:12:54.204Z,99.90
2022-11-23T17:15:56.272Z,99.90
2022-11-23T17:18:57.579Z,99.90
2022-11-23T17:21:58.310Z,99.90
2022-11-23T17:24:59.233Z,99.90
2022-11-23T17:28:01.523Z,99.90
2022-11-23T17:31:02.353Z,99.90
2022-11-23T17:34:03.644Z,99.90
2022-11-23T17:37:05.837Z,99.90
2022-11-23T17:40:14.914Z,99.90
2022-11-23T17:43:15.811Z,99.90
2022-11-23T17:46:24.428Z,99.90
2022-11-23T17:49:28.459Z,99.90
2022-11-23T17:52:29.528Z,99.90
2022-11-23T17:55:30.270Z,99.90
2022-11-23T17:58:31.588Z,99.90
2022-11-23T18:01:33.205Z,99.90
2022-11-23T18:04:34.149Z,99.90
2022-11-23T18:07:35.213Z,99.90
2022-11-23T18:10:36.459Z,99.90
2022-11-23T18:13:39.261Z,99.90
2022-11-23T18:16:40.485Z,99.90
2022-11-23T18:19:41.734Z,99.90
2022-11-23T18:22:42.692Z,99.90
2022-11-23T18:25:46.238Z,99.90
2022-11-23T18:28:49.395Z,99.90
2022-11-23T18:31:50.662Z,99.90
2022-11-23T18:34:51.932Z,99.90
2022-11-23T18:37:53.054Z,99.90
2022-11-23T18:40:54.989Z,99.90
2022-11-23T18:43:56.030Z,99.90
2022-11-23T18:46:57.408Z,99.90
2022-11-23T18:50:02.046Z,99.90
2022-11-23T18:53:07.453Z,99.90
2022-11-23T18:56:10.035Z,99.90
2022-11-23T18:59:28.771Z,99.90
2022-11-23T19:02:32.736Z,99.90
2022-11-23T19:05:36.075Z,99.90
2022-11-23T19:08:43.519Z,99.90
2022-11-23T19:11:44.658Z,99.90
2022-11-23T19:14:49.770Z,99.90
2022-11-23T19:17:50.659Z,99.90
2022-11-23T19:20:51.355Z,99.90
2022-11-23T19:23:55.830Z,99.90
2022-11-23T19:26:56.688Z,99.90
2022-11-23T19:29:57.868Z,99.90
2022-11-23T19:32:59.208Z,99.90
2022-11-23T19:36:12.455Z,99.90
2022-11-23T19:39:13.631Z,99.90
2022-11-23T19:42:14.408Z,99.90
2022-11-23T19:45:15.786Z,99.90
2022-11-23T19:48:17.103Z,99.90
2022-11-23T19:51:20.299Z,99.90
2022-11-23T19:54:21.387Z,99.90
2022-11-23T19:57:22.798Z,99.90
2022-11-23T20:00:23.617Z,99.90
2022-11-23T20:03:24.956Z,99.90
2022-11-23T20:06:29.822Z,99.90
2022-11-23T20:09:31.089Z,99.90
2022-11-23T20:12:33.438Z,99.90
2022-11-23T20:15:34.506Z,99.90
2022-11-23T20:18:35.763Z,99.90
2022-11-23T20:21:37.611Z,99.90
2022-11-23T20:24:38.617Z,99.90
2022-11-23T20:27:40.929Z,99.90
2022-11-23T20:30:43.514Z,99.90
2022-11-23T20:33:45.737Z,99.90
2022-11-23T20:36:46.572Z,99.90
2022-11-23T20:39:47.544Z,99.90
2022-11-23T20:42:48.703Z,99.90
2022-11-23T20:45:49.610Z,99.90
2022-11-23T20:48:52.870Z,99.90
2022-11-23T20:51:54.012Z,99.90
2022-11-23T20:54:54.735Z,99.90
2022-11-23T20:57:56.082Z,99.90
2022-11-23T21:01:02.358Z,99.90
2022-11-23T21:04:03.998Z,99.90
2022-11-23T21:07:04.879Z,99.90
2022-11-23T21:10:06.269Z,99.90
2022-11-23T21:13:48.676Z,99.90
2022-11-23T21:16:56.017Z,99.90
2022-11-23T21:19:57.226Z,99.90
2022-11-23T21:22:58.136Z,99.90
2022-11-23T21:26:06.748Z,99.90
2022-11-23T21:29:09.955Z,99.90
2022-11-23T21:32:11.681Z,99.90
2022-11-23T21:35:12.695Z,99.90
2022-11-23T21:38:13.687Z,99.90
2022-11-23T21:41:18.179Z,99.90
2022-11-23T21:44:20.633Z,99.90
2022-11-23T21:47:21.637Z,99.90
2022-11-23T21:50:22.430Z,99.90
2022-11-23T21:53:23.522Z,99.90
2022-11-23T21:56:26.070Z,99.90
2022-11-23T21:59:26.880Z,99.90
2022-11-23T22:02:28.395Z,99.90
2022-11-23T22:05:29.264Z,99.90
2022-11-23T22:08:30.139Z,99.90
2022-11-23T22:11:35.191Z,99.90
2022-11-23T22:14:36.095Z,99.90
2022-11-23T22:17:37.288Z,99.90
2022-11-23T22:20:38.109Z,99.90
2022-11-23T22:23:39.901Z,99.90
2022-11-23T22:26:41.999Z,99.90
2022-11-23T22:29:42.775Z,99.90
2022-11-23T22:32:43.648Z,99.90
2022-11-23T22:35:44.558Z,99.90
2022-11-23T22:38:46.441Z,99.90
2022-11-23T22:41:47.669Z,99.90
2022-11-23T22:44:48.366Z,99.90
2022-11-23T22:47:49.305Z,99.90
2022-11-23T22:51:02.963Z,99.90
2022-11-23T22:54:04.938Z,99.90
2022-11-23T22:57:06.166Z,99.90
2022-11-23T23:00:11.002Z,99.90
2022-11-23T23:03:12.519Z,99.90
2022-11-23T23:06:18.207Z,99.90
2022-11-23T23:09:19.445Z,99.90
2022-11-23T23:12:20.405Z,99.90
2022-11-23T23:15:22.164Z,99.90
2022-11-23T23:18:22.784Z,99.90
2022-11-23T23:21:25.916Z,99.90
2022-11-23T23:24:26.759Z,99.90
2022-11-23T23:27:28.676Z,99.90
2022-11-23T23:30:29.419Z,99.90
2022-11-23T23:33:32.879Z,99.90
2022-11-23T23:36:36.304Z,99.90
2022-11-23T23:39:37.170Z,99.90
2022-11-23T23:42:37.936Z,99.90
2022-11-23T23:45:38.882Z,99.90
2022-11-23T23:48:41.331Z,99.90
2022-11-23T23:51:42.398Z,99.90
2022-11-23T23:54:43.817Z,99.90
2022-11-23T23:57:44.725Z,99.90
